sensor_id;sensor_type;location;lat;lon;timestamp;P1;durP1;ratioP1;P2;durP2;ratioP2
74064;SDS011;62421;51.412;5.432;2023-12-14T00:02:17;60.03;;;22.77;;
74064;SDS011;62421;51.412;5.432;2023-12-14T00:04:43;49.53;;;18.93;;
74064;SDS011;62421;51.412;5.432;2023-12-14T00:07:08;52.07;;;19.60;;
74064;SDS011;62421;51.412;5.432;2023-12-14T00:09:33;43.13;;;16.83;;
74064;SDS011;62421;51.412;5.432;2023-12-14T00:11:58;43.83;;;17.37;;
74064;SDS011;62421;51.412;5.432;2023-12-14T00:14:23;42.30;;;17.87;;
74064;SDS011;62421;51.412;5.432;2023-12-14T00:16:49;38.30;;;18.03;;
74064;SDS011;62421;51.412;5.432;2023-12-14T00:19:14;36.13;;;17.97;;
74064;SDS011;62421;51.412;5.432;2023-12-14T00:21:39;28.67;;;15.40;;
74064;SDS011;62421;51.412;5.432;2023-12-14T00:24:05;27.90;;;14.10;;
74064;SDS011;62421;51.412;5.432;2023-12-14T00:26:30;26.87;;;13.00;;
74064;SDS011;62421;51.412;5.432;2023-12-14T00:28:55;31.23;;;13.80;;
74064;SDS011;62421;51.412;5.432;2023-12-14T00:31:20;25.67;;;13.67;;
74064;SDS011;62421;51.412;5.432;2023-12-14T00:33:46;27.63;;;13.80;;
74064;SDS011;62421;51.412;5.432;2023-12-14T00:36:17;28.00;;;13.33;;
74064;SDS011;62421;51.412;5.432;2023-12-14T00:38:42;24.83;;;12.60;;
74064;SDS011;62421;51.412;5.432;2023-12-14T00:41:07;25.13;;;13.23;;
74064;SDS011;62421;51.412;5.432;2023-12-14T00:43:32;24.27;;;12.63;;
74064;SDS011;62421;51.412;5.432;2023-12-14T00:45:57;23.17;;;12.30;;
74064;SDS011;62421;51.412;5.432;2023-12-14T00:48:23;24.07;;;12.90;;
74064;SDS011;62421;51.412;5.432;2023-12-14T00:50:48;26.50;;;12.93;;
74064;SDS011;62421;51.412;5.432;2023-12-14T00:53:13;26.87;;;11.67;;
74064;SDS011;62421;51.412;5.432;2023-12-14T00:55:38;25.53;;;14.00;;
74064;SDS011;62421;51.412;5.432;2023-12-14T00:58:03;24.73;;;11.53;;
74064;SDS011;62421;51.412;5.432;2023-12-14T01:00:29;21.33;;;11.73;;
74064;SDS011;62421;51.412;5.432;2023-12-14T01:02:55;27.08;;;14.30;;
74064;SDS011;62421;51.412;5.432;2023-12-14T01:05:20;32.50;;;13.97;;
74064;SDS011;62421;51.412;5.432;2023-12-14T01:07:46;33.13;;;14.80;;
74064;SDS011;62421;51.412;5.432;2023-12-14T01:10:11;25.15;;;12.40;;
74064;SDS011;62421;51.412;5.432;2023-12-14T01:12:36;32.25;;;15.32;;
74064;SDS011;62421;51.412;5.432;2023-12-14T01:15:01;34.40;;;15.63;;
74064;SDS011;62421;51.412;5.432;2023-12-14T01:17:27;32.87;;;16.17;;
74064;SDS011;62421;51.412;5.432;2023-12-14T01:19:53;38.50;;;15.65;;
74064;SDS011;62421;51.412;5.432;2023-12-14T01:22:19;31.87;;;14.37;;
74064;SDS011;62421;51.412;5.432;2023-12-14T01:24:44;32.40;;;13.30;;
74064;SDS011;62421;51.412;5.432;2023-12-14T01:27:09;36.73;;;16.63;;
74064;SDS011;62421;51.412;5.432;2023-12-14T01:29:35;32.77;;;13.83;;
74064;SDS011;62421;51.412;5.432;2023-12-14T01:32:00;34.67;;;15.80;;
74064;SDS011;62421;51.412;5.432;2023-12-14T01:34:25;35.77;;;14.30;;
74064;SDS011;62421;51.412;5.432;2023-12-14T01:36:51;28.70;;;14.88;;
74064;SDS011;62421;51.412;5.432;2023-12-14T01:39:17;37.03;;;16.07;;
74064;SDS011;62421;51.412;5.432;2023-12-14T01:41:42;40.13;;;15.53;;
74064;SDS011;62421;51.412;5.432;2023-12-14T01:44:07;35.00;;;13.83;;
74064;SDS011;62421;51.412;5.432;2023-12-14T01:46:32;34.60;;;14.73;;
74064;SDS011;62421;51.412;5.432;2023-12-14T01:48:57;38.13;;;17.07;;
74064;SDS011;62421;51.412;5.432;2023-12-14T01:51:22;31.10;;;13.83;;
74064;SDS011;62421;51.412;5.432;2023-12-14T01:53:48;24.67;;;11.27;;
74064;SDS011;62421;51.412;5.432;2023-12-14T01:56:13;37.23;;;16.13;;
74064;SDS011;62421;51.412;5.432;2023-12-14T01:58:38;34.07;;;15.03;;
74064;SDS011;62421;51.412;5.432;2023-12-14T02:01:04;31.33;;;14.80;;
74064;SDS011;62421;51.412;5.432;2023-12-14T02:03:32;32.45;;;13.13;;
74064;SDS011;62421;51.412;5.432;2023-12-14T02:05:57;27.30;;;12.87;;
74064;SDS011;62421;51.412;5.432;2023-12-14T02:08:23;30.95;;;12.77;;
74064;SDS011;62421;51.412;5.432;2023-12-14T02:10:48;28.95;;;13.63;;
74064;SDS011;62421;51.412;5.432;2023-12-14T02:13:14;28.43;;;12.13;;
74064;SDS011;62421;51.412;5.432;2023-12-14T02:15:39;30.47;;;13.73;;
74064;SDS011;62421;51.412;5.432;2023-12-14T02:18:04;31.33;;;12.33;;
74064;SDS011;62421;51.412;5.432;2023-12-14T02:20:29;24.47;;;12.00;;
74064;SDS011;62421;51.412;5.432;2023-12-14T02:22:55;27.70;;;13.50;;
74064;SDS011;62421;51.412;5.432;2023-12-14T02:25:20;27.70;;;12.83;;
74064;SDS011;62421;51.412;5.432;2023-12-14T02:27:46;25.30;;;11.68;;
74064;SDS011;62421;51.412;5.432;2023-12-14T02:30:12;28.17;;;13.43;;
74064;SDS011;62421;51.412;5.432;2023-12-14T02:32:40;25.50;;;12.70;;
74064;SDS011;62421;51.412;5.432;2023-12-14T02:35:06;19.33;;;8.90;;
74064;SDS011;62421;51.412;5.432;2023-12-14T02:37:31;21.75;;;10.45;;
74064;SDS011;62421;51.412;5.432;2023-12-14T02:39:57;25.93;;;11.13;;
74064;SDS011;62421;51.412;5.432;2023-12-14T02:42:22;18.93;;;9.63;;
74064;SDS011;62421;51.412;5.432;2023-12-14T02:44:47;23.63;;;11.60;;
74064;SDS011;62421;51.412;5.432;2023-12-14T02:47:12;22.97;;;10.67;;
74064;SDS011;62421;51.412;5.432;2023-12-14T02:49:38;24.40;;;12.17;;
74064;SDS011;62421;51.412;5.432;2023-12-14T02:52:03;24.77;;;12.23;;
74064;SDS011;62421;51.412;5.432;2023-12-14T02:54:28;22.13;;;11.17;;
74064;SDS011;62421;51.412;5.432;2023-12-14T02:56:53;23.07;;;11.33;;
74064;SDS011;62421;51.412;5.432;2023-12-14T02:59:19;25.13;;;12.60;;
74064;SDS011;62421;51.412;5.432;2023-12-14T03:01:44;22.23;;;10.73;;
74064;SDS011;62421;51.412;5.432;2023-12-14T03:04:09;21.93;;;11.27;;
74064;SDS011;62421;51.412;5.432;2023-12-14T03:06:34;26.17;;;12.87;;
74064;SDS011;62421;51.412;5.432;2023-12-14T03:08:59;28.57;;;13.97;;
74064;SDS011;62421;51.412;5.432;2023-12-14T03:11:25;20.73;;;10.67;;
74064;SDS011;62421;51.412;5.432;2023-12-14T03:13:50;21.87;;;9.80;;
74064;SDS011;62421;51.412;5.432;2023-12-14T03:16:15;28.83;;;15.40;;
74064;SDS011;62421;51.412;5.432;2023-12-14T03:18:42;24.75;;;11.20;;
74064;SDS011;62421;51.412;5.432;2023-12-14T03:21:07;26.53;;;12.17;;
74064;SDS011;62421;51.412;5.432;2023-12-14T03:23:32;26.63;;;13.13;;
74064;SDS011;62421;51.412;5.432;2023-12-14T03:25:57;26.07;;;13.63;;
74064;SDS011;62421;51.412;5.432;2023-12-14T03:28:22;25.07;;;12.13;;
74064;SDS011;62421;51.412;5.432;2023-12-14T03:30:48;28.57;;;13.77;;
74064;SDS011;62421;51.412;5.432;2023-12-14T03:33:13;27.80;;;13.27;;
74064;SDS011;62421;51.412;5.432;2023-12-14T03:35:38;25.27;;;14.02;;
74064;SDS011;62421;51.412;5.432;2023-12-14T03:38:06;28.65;;;13.13;;
74064;SDS011;62421;51.412;5.432;2023-12-14T03:40:32;28.97;;;14.73;;
74064;SDS011;62421;51.412;5.432;2023-12-14T03:42:57;24.33;;;12.13;;
74064;SDS011;62421;51.412;5.432;2023-12-14T03:45:22;23.17;;;10.77;;
74064;SDS011;62421;51.412;5.432;2023-12-14T03:47:47;24.10;;;11.70;;
74064;SDS011;62421;51.412;5.432;2023-12-14T03:50:12;26.67;;;12.13;;
74064;SDS011;62421;51.412;5.432;2023-12-14T03:52:38;24.20;;;12.00;;
74064;SDS011;62421;51.412;5.432;2023-12-14T03:55:03;20.63;;;10.23;;
74064;SDS011;62421;51.412;5.432;2023-12-14T03:57:28;25.27;;;13.50;;
74064;SDS011;62421;51.412;5.432;2023-12-14T03:59:53;27.17;;;13.80;;
74064;SDS011;62421;51.412;5.432;2023-12-14T04:02:18;27.73;;;13.67;;
74064;SDS011;62421;51.412;5.432;2023-12-14T04:04:44;27.70;;;14.00;;
74064;SDS011;62421;51.412;5.432;2023-12-14T04:07:10;22.50;;;12.52;;
74064;SDS011;62421;51.412;5.432;2023-12-14T04:09:35;25.03;;;13.50;;
74064;SDS011;62421;51.412;5.432;2023-12-14T04:12:00;22.83;;;12.03;;
74064;SDS011;62421;51.412;5.432;2023-12-14T04:14:25;25.43;;;13.23;;
74064;SDS011;62421;51.412;5.432;2023-12-14T04:16:51;23.67;;;13.17;;
74064;SDS011;62421;51.412;5.432;2023-12-14T04:19:16;26.70;;;14.13;;
74064;SDS011;62421;51.412;5.432;2023-12-14T04:21:41;25.47;;;12.67;;
74064;SDS011;62421;51.412;5.432;2023-12-14T04:24:06;24.03;;;12.37;;
74064;SDS011;62421;51.412;5.432;2023-12-14T04:26:31;26.03;;;12.83;;
74064;SDS011;62421;51.412;5.432;2023-12-14T04:28:57;25.87;;;12.93;;
74064;SDS011;62421;51.412;5.432;2023-12-14T04:31:22;26.37;;;12.70;;
74064;SDS011;62421;51.412;5.432;2023-12-14T04:33:47;29.07;;;14.90;;
74064;SDS011;62421;51.412;5.432;2023-12-14T04:36:12;26.40;;;12.30;;
74064;SDS011;62421;51.412;5.432;2023-12-14T04:38:37;21.03;;;11.37;;
74064;SDS011;62421;51.412;5.432;2023-12-14T04:41:02;26.87;;;13.43;;
74064;SDS011;62421;51.412;5.432;2023-12-14T04:43:28;22.60;;;12.80;;
74064;SDS011;62421;51.412;5.432;2023-12-14T04:45:55;26.58;;;12.27;;
74064;SDS011;62421;51.412;5.432;2023-12-14T04:48:20;24.60;;;12.67;;
74064;SDS011;62421;51.412;5.432;2023-12-14T04:50:46;25.38;;;13.73;;
74064;SDS011;62421;51.412;5.432;2023-12-14T04:53:11;27.30;;;12.97;;
74064;SDS011;62421;51.412;5.432;2023-12-14T04:55:36;21.10;;;10.00;;
74064;SDS011;62421;51.412;5.432;2023-12-14T04:58:01;24.87;;;13.17;;
74064;SDS011;62421;51.412;5.432;2023-12-14T05:00:27;25.00;;;14.10;;
74064;SDS011;62421;51.412;5.432;2023-12-14T05:02:52;25.17;;;13.00;;
74064;SDS011;62421;51.412;5.432;2023-12-14T05:05:17;23.63;;;13.43;;
74064;SDS011;62421;51.412;5.432;2023-12-14T05:07:42;26.05;;;12.50;;
74064;SDS011;62421;51.412;5.432;2023-12-14T05:10:07;27.13;;;14.67;;
74064;SDS011;62421;51.412;5.432;2023-12-14T05:12:34;26.58;;;13.90;;
74064;SDS011;62421;51.412;5.432;2023-12-14T05:14:59;21.83;;;13.10;;
74064;SDS011;62421;51.412;5.432;2023-12-14T05:17:25;23.87;;;11.67;;
74064;SDS011;62421;51.412;5.432;2023-12-14T05:19:50;24.27;;;12.90;;
74064;SDS011;62421;51.412;5.432;2023-12-14T05:22:15;25.30;;;12.83;;
74064;SDS011;62421;51.412;5.432;2023-12-14T05:24:40;25.23;;;12.80;;
74064;SDS011;62421;51.412;5.432;2023-12-14T05:27:05;25.80;;;12.27;;
74064;SDS011;62421;51.412;5.432;2023-12-14T05:29:31;23.77;;;11.97;;
74064;SDS011;62421;51.412;5.432;2023-12-14T05:31:58;25.38;;;12.68;;
74064;SDS011;62421;51.412;5.432;2023-12-14T05:34:23;24.50;;;11.67;;
74064;SDS011;62421;51.412;5.432;2023-12-14T05:36:48;25.20;;;13.53;;
74064;SDS011;62421;51.412;5.432;2023-12-14T05:39:13;21.77;;;11.23;;
74064;SDS011;62421;51.412;5.432;2023-12-14T05:41:39;26.80;;;12.68;;
74064;SDS011;62421;51.412;5.432;2023-12-14T05:44:04;23.23;;;11.87;;
74064;SDS011;62421;51.412;5.432;2023-12-14T05:46:30;22.70;;;12.07;;
74064;SDS011;62421;51.412;5.432;2023-12-14T05:48:55;25.30;;;12.43;;
74064;SDS011;62421;51.412;5.432;2023-12-14T05:51:30;26.33;;;13.03;;
74064;SDS011;62421;51.412;5.432;2023-12-14T05:53:56;21.75;;;12.20;;
74064;SDS011;62421;51.412;5.432;2023-12-14T05:56:21;23.93;;;13.20;;
74064;SDS011;62421;51.412;5.432;2023-12-14T05:58:46;25.40;;;13.43;;
74064;SDS011;62421;51.412;5.432;2023-12-14T06:01:11;28.20;;;14.73;;
74064;SDS011;62421;51.412;5.432;2023-12-14T06:03:36;29.50;;;14.07;;
74064;SDS011;62421;51.412;5.432;2023-12-14T06:06:02;25.20;;;13.43;;
74064;SDS011;62421;51.412;5.432;2023-12-14T06:08:27;27.80;;;13.47;;
74064;SDS011;62421;51.412;5.432;2023-12-14T06:10:52;22.63;;;11.53;;
74064;SDS011;62421;51.412;5.432;2023-12-14T06:13:17;26.50;;;13.60;;
74064;SDS011;62421;51.412;5.432;2023-12-14T06:15:42;25.90;;;12.60;;
74064;SDS011;62421;51.412;5.432;2023-12-14T06:18:08;26.80;;;14.47;;
74064;SDS011;62421;51.412;5.432;2023-12-14T06:20:33;20.83;;;10.83;;
74064;SDS011;62421;51.412;5.432;2023-12-14T06:22:58;25.43;;;12.87;;
74064;SDS011;62421;51.412;5.432;2023-12-14T06:25:23;26.73;;;13.33;;
74064;SDS011;62421;51.412;5.432;2023-12-14T06:27:48;25.83;;;13.57;;
74064;SDS011;62421;51.412;5.432;2023-12-14T06:30:14;24.93;;;13.70;;
74064;SDS011;62421;51.412;5.432;2023-12-14T06:32:39;27.17;;;13.13;;
74064;SDS011;62421;51.412;5.432;2023-12-14T06:35:05;22.92;;;11.25;;
74064;SDS011;62421;51.412;5.432;2023-12-14T06:37:30;23.23;;;12.02;;
74064;SDS011;62421;51.412;5.432;2023-12-14T06:39:55;21.93;;;12.50;;
74064;SDS011;62421;51.412;5.432;2023-12-14T06:42:20;25.20;;;13.53;;
74064;SDS011;62421;51.412;5.432;2023-12-14T06:44:46;24.70;;;13.93;;
74064;SDS011;62421;51.412;5.432;2023-12-14T06:47:11;25.53;;;12.87;;
74064;SDS011;62421;51.412;5.432;2023-12-14T06:49:38;24.60;;;13.20;;
74064;SDS011;62421;51.412;5.432;2023-12-14T06:52:05;23.63;;;12.87;;
74064;SDS011;62421;51.412;5.432;2023-12-14T06:54:30;23.90;;;12.77;;
74064;SDS011;62421;51.412;5.432;2023-12-14T06:56:55;25.47;;;14.07;;
74064;SDS011;62421;51.412;5.432;2023-12-14T06:59:20;22.60;;;12.23;;
74064;SDS011;62421;51.412;5.432;2023-12-14T07:01:46;24.87;;;13.17;;
74064;SDS011;62421;51.412;5.432;2023-12-14T07:04:11;23.70;;;13.40;;
74064;SDS011;62421;51.412;5.432;2023-12-14T07:06:36;21.90;;;11.43;;
74064;SDS011;62421;51.412;5.432;2023-12-14T07:09:01;24.03;;;13.07;;
74064;SDS011;62421;51.412;5.432;2023-12-14T07:11:27;21.03;;;11.43;;
74064;SDS011;62421;51.412;5.432;2023-12-14T07:13:52;22.23;;;11.80;;
74064;SDS011;62421;51.412;5.432;2023-12-14T07:16:17;26.37;;;13.23;;
74064;SDS011;62421;51.412;5.432;2023-12-14T07:18:43;24.57;;;13.27;;
74064;SDS011;62421;51.412;5.432;2023-12-14T07:21:09;29.88;;;11.68;;
74064;SDS011;62421;51.412;5.432;2023-12-14T07:23:35;24.80;;;12.47;;
74064;SDS011;62421;51.412;5.432;2023-12-14T07:26:00;25.15;;;13.52;;
74064;SDS011;62421;51.412;5.432;2023-12-14T07:28:26;33.77;;;13.57;;
74064;SDS011;62421;51.412;5.432;2023-12-14T07:30:51;30.37;;;13.77;;
74064;SDS011;62421;51.412;5.432;2023-12-14T07:33:16;30.77;;;14.60;;
74064;SDS011;62421;51.412;5.432;2023-12-14T07:35:41;31.70;;;14.83;;
74064;SDS011;62421;51.412;5.432;2023-12-14T07:38:07;35.53;;;14.47;;
74064;SDS011;62421;51.412;5.432;2023-12-14T07:40:32;34.33;;;14.70;;
74064;SDS011;62421;51.412;5.432;2023-12-14T07:42:57;38.57;;;16.40;;
74064;SDS011;62421;51.412;5.432;2023-12-14T07:45:22;36.47;;;15.70;;
74064;SDS011;62421;51.412;5.432;2023-12-14T07:47:48;33.50;;;15.57;;
74064;SDS011;62421;51.412;5.432;2023-12-14T07:50:13;32.47;;;15.17;;
74064;SDS011;62421;51.412;5.432;2023-12-14T07:52:39;36.33;;;15.27;;
74064;SDS011;62421;51.412;5.432;2023-12-14T07:55:05;36.20;;;14.93;;
74064;SDS011;62421;51.412;5.432;2023-12-14T07:57:30;35.20;;;14.40;;
74064;SDS011;62421;51.412;5.432;2023-12-14T07:59:56;30.93;;;13.90;;
74064;SDS011;62421;51.412;5.432;2023-12-14T08:02:21;38.53;;;13.88;;
74064;SDS011;62421;51.412;5.432;2023-12-14T08:04:47;28.83;;;12.83;;
74064;SDS011;62421;51.412;5.432;2023-12-14T08:07:12;28.67;;;12.80;;
74064;SDS011;62421;51.412;5.432;2023-12-14T08:09:37;36.20;;;13.73;;
74064;SDS011;62421;51.412;5.432;2023-12-14T08:12:02;34.27;;;13.57;;
74064;SDS011;62421;51.412;5.432;2023-12-14T08:14:27;31.77;;;13.10;;
74064;SDS011;62421;51.412;5.432;2023-12-14T08:16:53;28.03;;;12.80;;
74064;SDS011;62421;51.412;5.432;2023-12-14T08:19:18;28.70;;;12.07;;
74064;SDS011;62421;51.412;5.432;2023-12-14T08:21:43;27.83;;;13.47;;
74064;SDS011;62421;51.412;5.432;2023-12-14T08:24:08;29.10;;;12.97;;
74064;SDS011;62421;51.412;5.432;2023-12-14T08:26:33;30.42;;;13.93;;
74064;SDS011;62421;51.412;5.432;2023-12-14T08:28:59;29.73;;;12.37;;
74064;SDS011;62421;51.412;5.432;2023-12-14T08:31:24;28.50;;;10.63;;
74064;SDS011;62421;51.412;5.432;2023-12-14T08:33:50;29.77;;;11.30;;
74064;SDS011;62421;51.412;5.432;2023-12-14T08:36:17;26.20;;;11.55;;
74064;SDS011;62421;51.412;5.432;2023-12-14T08:38:42;28.70;;;11.67;;
74064;SDS011;62421;51.412;5.432;2023-12-14T08:41:07;23.00;;;12.00;;
74064;SDS011;62421;51.412;5.432;2023-12-14T08:43:32;26.50;;;11.97;;
74064;SDS011;62421;51.412;5.432;2023-12-14T08:45:57;25.50;;;11.93;;
74064;SDS011;62421;51.412;5.432;2023-12-14T08:48:23;21.03;;;9.00;;
74064;SDS011;62421;51.412;5.432;2023-12-14T08:50:48;22.50;;;10.00;;
74064;SDS011;62421;51.412;5.432;2023-12-14T08:53:14;29.00;;;10.60;;
74064;SDS011;62421;51.412;5.432;2023-12-14T08:55:39;25.37;;;11.50;;
74064;SDS011;62421;51.412;5.432;2023-12-14T08:58:04;24.50;;;11.27;;
74064;SDS011;62421;51.412;5.432;2023-12-14T09:00:29;25.07;;;11.17;;
74064;SDS011;62421;51.412;5.432;2023-12-14T09:02:54;23.40;;;11.17;;
74064;SDS011;62421;51.412;5.432;2023-12-14T09:05:20;23.53;;;11.40;;
74064;SDS011;62421;51.412;5.432;2023-12-14T09:07:46;21.73;;;11.60;;
74064;SDS011;62421;51.412;5.432;2023-12-14T09:10:11;25.60;;;11.43;;
74064;SDS011;62421;51.412;5.432;2023-12-14T09:12:36;20.77;;;10.33;;
74064;SDS011;62421;51.412;5.432;2023-12-14T09:15:01;20.15;;;10.88;;
74064;SDS011;62421;51.412;5.432;2023-12-14T09:17:27;22.87;;;10.90;;
74064;SDS011;62421;51.412;5.432;2023-12-14T09:19:57;20.37;;;9.93;;
74064;SDS011;62421;51.412;5.432;2023-12-14T09:22:23;19.80;;;10.23;;
74064;SDS011;62421;51.412;5.432;2023-12-14T09:24:48;22.70;;;10.60;;
74064;SDS011;62421;51.412;5.432;2023-12-14T09:27:13;19.73;;;10.50;;
74064;SDS011;62421;51.412;5.432;2023-12-14T09:29:38;21.07;;;10.37;;
74064;SDS011;62421;51.412;5.432;2023-12-14T09:32:04;18.67;;;10.20;;
74064;SDS011;62421;51.412;5.432;2023-12-14T09:34:29;19.63;;;10.57;;
74064;SDS011;62421;51.412;5.432;2023-12-14T09:36:54;18.90;;;9.77;;
74064;SDS011;62421;51.412;5.432;2023-12-14T09:39:19;19.83;;;10.60;;
74064;SDS011;62421;51.412;5.432;2023-12-14T09:41:46;17.25;;;9.35;;
74064;SDS011;62421;51.412;5.432;2023-12-14T09:44:12;21.98;;;10.68;;
74064;SDS011;62421;51.412;5.432;2023-12-14T09:46:37;20.47;;;10.13;;
74064;SDS011;62421;51.412;5.432;2023-12-14T09:49:03;20.07;;;9.43;;
74064;SDS011;62421;51.412;5.432;2023-12-14T09:51:29;19.23;;;10.50;;
74064;SDS011;62421;51.412;5.432;2023-12-14T09:53:54;17.00;;;9.87;;
74064;SDS011;62421;51.412;5.432;2023-12-14T09:56:26;15.05;;;9.32;;
74064;SDS011;62421;51.412;5.432;2023-12-14T09:58:52;20.73;;;9.57;;
74064;SDS011;62421;51.412;5.432;2023-12-14T10:03:49;14.63;;;8.00;;
74064;SDS011;62421;51.412;5.432;2023-12-14T10:06:14;14.63;;;8.63;;
74064;SDS011;62421;51.412;5.432;2023-12-14T10:08:39;15.20;;;7.63;;
74064;SDS011;62421;51.412;5.432;2023-12-14T10:11:05;13.97;;;8.13;;
74064;SDS011;62421;51.412;5.432;2023-12-14T10:13:39;17.10;;;8.77;;
74064;SDS011;62421;51.412;5.432;2023-12-14T10:16:04;16.55;;;10.00;;
74064;SDS011;62421;51.412;5.432;2023-12-14T10:18:31;16.87;;;9.57;;
74064;SDS011;62421;51.412;5.432;2023-12-14T10:20:56;21.73;;;10.10;;
74064;SDS011;62421;51.412;5.432;2023-12-14T10:23:21;14.70;;;8.37;;
74064;SDS011;62421;51.412;5.432;2023-12-14T10:25:47;21.93;;;9.97;;
74064;SDS011;62421;51.412;5.432;2023-12-14T10:28:15;17.17;;;9.30;;
74064;SDS011;62421;51.412;5.432;2023-12-14T10:30:41;18.50;;;9.57;;
74064;SDS011;62421;51.412;5.432;2023-12-14T10:33:07;16.02;;;9.32;;
74064;SDS011;62421;51.412;5.432;2023-12-14T10:35:32;16.10;;;7.90;;
74064;SDS011;62421;51.412;5.432;2023-12-14T10:37:58;17.87;;;8.60;;
74064;SDS011;62421;51.412;5.432;2023-12-14T10:40:26;15.53;;;8.37;;
74064;SDS011;62421;51.412;5.432;2023-12-14T10:42:53;16.40;;;8.27;;
74064;SDS011;62421;51.412;5.432;2023-12-14T10:45:20;16.95;;;9.25;;
74064;SDS011;62421;51.412;5.432;2023-12-14T10:47:47;21.75;;;8.88;;
74064;SDS011;62421;51.412;5.432;2023-12-14T10:50:13;16.23;;;8.75;;
74064;SDS011;62421;51.412;5.432;2023-12-14T10:52:38;20.52;;;9.70;;
74064;SDS011;62421;51.412;5.432;2023-12-14T10:55:06;15.15;;;8.48;;
74064;SDS011;62421;51.412;5.432;2023-12-14T10:57:32;17.85;;;9.80;;
74064;SDS011;62421;51.412;5.432;2023-12-14T10:59:59;21.35;;;9.57;;
74064;SDS011;62421;51.412;5.432;2023-12-14T11:02:25;18.23;;;9.35;;
74064;SDS011;62421;51.412;5.432;2023-12-14T11:05:02;17.33;;;9.87;;
74064;SDS011;62421;51.412;5.432;2023-12-14T11:07:43;16.17;;;9.03;;
74064;SDS011;62421;51.412;5.432;2023-12-14T11:10:09;16.40;;;9.35;;
74064;SDS011;62421;51.412;5.432;2023-12-14T11:12:34;16.23;;;9.13;;
74064;SDS011;62421;51.412;5.432;2023-12-14T11:15:00;16.07;;;8.93;;
74064;SDS011;62421;51.412;5.432;2023-12-14T11:17:25;15.60;;;7.90;;
74064;SDS011;62421;51.412;5.432;2023-12-14T11:19:50;16.63;;;8.07;;
74064;SDS011;62421;51.412;5.432;2023-12-14T11:22:27;17.80;;;7.90;;
74064;SDS011;62421;51.412;5.432;2023-12-14T11:24:54;17.40;;;9.02;;
74064;SDS011;62421;51.412;5.432;2023-12-14T11:27:26;17.63;;;8.57;;
74064;SDS011;62421;51.412;5.432;2023-12-14T11:29:53;13.55;;;7.28;;
74064;SDS011;62421;51.412;5.432;2023-12-14T11:32:18;17.17;;;8.27;;
74064;SDS011;62421;51.412;5.432;2023-12-14T11:34:45;18.35;;;9.40;;
74064;SDS011;62421;51.412;5.432;2023-12-14T11:37:10;17.73;;;8.88;;
74064;SDS011;62421;51.412;5.432;2023-12-14T11:39:36;13.93;;;7.90;;
74064;SDS011;62421;51.412;5.432;2023-12-14T11:42:02;15.02;;;8.32;;
74064;SDS011;62421;51.412;5.432;2023-12-14T11:44:28;15.37;;;8.53;;
74064;SDS011;62421;51.412;5.432;2023-12-14T11:46:53;19.83;;;8.70;;
74064;SDS011;62421;51.412;5.432;2023-12-14T11:49:19;18.42;;;8.50;;
74064;SDS011;62421;51.412;5.432;2023-12-14T11:51:47;16.63;;;7.60;;
74064;SDS011;62421;51.412;5.432;2023-12-14T11:54:13;14.93;;;8.27;;
74064;SDS011;62421;51.412;5.432;2023-12-14T11:56:38;17.23;;;8.10;;
74064;SDS011;62421;51.412;5.432;2023-12-14T11:59:03;12.93;;;7.17;;
74064;SDS011;62421;51.412;5.432;2023-12-14T12:01:29;16.10;;;8.33;;
74064;SDS011;62421;51.412;5.432;2023-12-14T12:03:56;15.55;;;8.52;;
74064;SDS011;62421;51.412;5.432;2023-12-14T12:06:25;14.33;;;8.30;;
74064;SDS011;62421;51.412;5.432;2023-12-14T12:08:52;13.80;;;7.00;;
74064;SDS011;62421;51.412;5.432;2023-12-14T12:11:18;12.83;;;7.67;;
74064;SDS011;62421;51.412;5.432;2023-12-14T12:13:44;13.68;;;7.65;;
74064;SDS011;62421;51.412;5.432;2023-12-14T12:16:09;15.87;;;7.97;;
74064;SDS011;62421;51.412;5.432;2023-12-14T12:18:34;13.97;;;8.17;;
74064;SDS011;62421;51.412;5.432;2023-12-14T12:20:59;13.33;;;6.97;;
74064;SDS011;62421;51.412;5.432;2023-12-14T12:23:29;14.87;;;7.60;;
74064;SDS011;62421;51.412;5.432;2023-12-14T12:25:54;16.80;;;7.93;;
74064;SDS011;62421;51.412;5.432;2023-12-14T12:28:20;12.25;;;6.65;;
74064;SDS011;62421;51.412;5.432;2023-12-14T12:30:46;16.13;;;7.30;;
74064;SDS011;62421;51.412;5.432;2023-12-14T12:33:12;13.90;;;7.27;;
74064;SDS011;62421;51.412;5.432;2023-12-14T12:35:37;12.80;;;7.40;;
74064;SDS011;62421;51.412;5.432;2023-12-14T12:38:02;14.63;;;7.50;;
74064;SDS011;62421;51.412;5.432;2023-12-14T12:40:28;11.37;;;6.47;;
74064;SDS011;62421;51.412;5.432;2023-12-14T12:42:55;12.77;;;6.25;;
74064;SDS011;62421;51.412;5.432;2023-12-14T12:45:20;14.93;;;6.27;;
74064;SDS011;62421;51.412;5.432;2023-12-14T12:47:47;11.38;;;6.53;;
74064;SDS011;62421;51.412;5.432;2023-12-14T12:50:12;11.70;;;7.13;;
74064;SDS011;62421;51.412;5.432;2023-12-14T12:52:38;13.33;;;7.30;;
74064;SDS011;62421;51.412;5.432;2023-12-14T12:55:04;15.30;;;7.43;;
74064;SDS011;62421;51.412;5.432;2023-12-14T12:57:30;13.35;;;7.32;;
74064;SDS011;62421;51.412;5.432;2023-12-14T12:59:55;13.37;;;8.10;;
74064;SDS011;62421;51.412;5.432;2023-12-14T13:02:20;14.30;;;7.60;;
74064;SDS011;62421;51.412;5.432;2023-12-14T13:04:46;13.87;;;7.13;;
74064;SDS011;62421;51.412;5.432;2023-12-14T13:07:11;13.93;;;7.97;;
74064;SDS011;62421;51.412;5.432;2023-12-14T13:09:37;13.40;;;8.00;;
74064;SDS011;62421;51.412;5.432;2023-12-14T13:12:02;16.17;;;7.23;;
74064;SDS011;62421;51.412;5.432;2023-12-14T13:14:27;15.63;;;8.30;;
74064;SDS011;62421;51.412;5.432;2023-12-14T13:16:52;14.17;;;8.07;;
74064;SDS011;62421;51.412;5.432;2023-12-14T13:19:18;14.80;;;7.37;;
74064;SDS011;62421;51.412;5.432;2023-12-14T13:21:43;15.50;;;7.00;;
74064;SDS011;62421;51.412;5.432;2023-12-14T13:24:08;14.40;;;7.43;;
74064;SDS011;62421;51.412;5.432;2023-12-14T13:26:33;13.90;;;7.57;;
74064;SDS011;62421;51.412;5.432;2023-12-14T13:28:59;16.97;;;8.47;;
74064;SDS011;62421;51.412;5.432;2023-12-14T13:31:24;13.00;;;7.53;;
74064;SDS011;62421;51.412;5.432;2023-12-14T13:33:49;15.10;;;7.88;;
74064;SDS011;62421;51.412;5.432;2023-12-14T13:36:18;14.88;;;8.40;;
74064;SDS011;62421;51.412;5.432;2023-12-14T13:38:44;15.75;;;8.48;;
74064;SDS011;62421;51.412;5.432;2023-12-14T13:41:09;16.87;;;8.27;;
74064;SDS011;62421;51.412;5.432;2023-12-14T13:43:34;15.67;;;9.23;;
74064;SDS011;62421;51.412;5.432;2023-12-14T13:46:00;17.20;;;8.50;;
74064;SDS011;62421;51.412;5.432;2023-12-14T13:48:25;14.13;;;8.83;;
74064;SDS011;62421;51.412;5.432;2023-12-14T13:50:51;16.50;;;8.40;;
74064;SDS011;62421;51.412;5.432;2023-12-14T13:53:16;18.50;;;8.38;;
74064;SDS011;62421;51.412;5.432;2023-12-14T13:55:41;16.27;;;8.73;;
74064;SDS011;62421;51.412;5.432;2023-12-14T13:58:06;14.47;;;8.80;;
74064;SDS011;62421;51.412;5.432;2023-12-14T14:00:32;19.27;;;8.33;;
74064;SDS011;62421;51.412;5.432;2023-12-14T14:02:59;21.65;;;8.45;;
74064;SDS011;62421;51.412;5.432;2023-12-14T14:05:24;15.27;;;8.53;;
74064;SDS011;62421;51.412;5.432;2023-12-14T14:07:49;15.33;;;9.33;;
74064;SDS011;62421;51.412;5.432;2023-12-14T14:10:15;15.00;;;8.33;;
74064;SDS011;62421;51.412;5.432;2023-12-14T14:12:40;20.80;;;8.67;;
74064;SDS011;62421;51.412;5.432;2023-12-14T14:15:05;15.80;;;8.30;;
74064;SDS011;62421;51.412;5.432;2023-12-14T14:17:31;16.42;;;8.50;;
74064;SDS011;62421;51.412;5.432;2023-12-14T14:19:56;17.57;;;8.97;;